Time;durP1;ratioP1;P1;durP2;ratioP2;P2;SDS_P1;SDS_P2;PMS_P1;PMS_P2;Temp;Humidity;BMP_temperature;BMP_pressure;BME280_temperature;BME280_humidity;BME280_pressure;Samples;Min_cycle;Max_cycle;Signal;HPM_P1;HPM_P2
2021/04/15 00:02:16;;;;;;;8.23;6.63;;;;;;;;;;4890776;28;20284;-86
2021/04/15 00:04:44;;;;;;;8.67;7.33;;;;;;;;;;4919317;28;20271;-87
2021/04/15 00:07:13;;;;;;;7.50;6.50;;;;;;;;;;4877950;28;20233;-83
2021/04/15 00:09:40;;;;;;;7.73;7.03;;;;;;;;;;4903096;28;20252;-82
2021/04/15 00:12:08;;;;;;;10.47;7.10;;;;;;;;;;4889067;28;20259;-81
2021/04/15 00:14:36;;;;;;;7.70;6.90;;;;;;;;;;4863191;28;20788;-86
2021/04/15 00:17:04;;;;;;;8.43;7.37;;;;;;;;;;4882261;28;20243;-82
2021/04/15 00:19:32;;;;;;;8.90;7.40;;;;;;;;;;4872398;28;20249;-83
2021/04/15 00:21:59;;;;;;;9.00;7.30;;;;;;;;;;4888702;28;20232;-85
2021/04/15 00:24:28;;;;;;;8.20;7.40;;;;;;;;;;4879292;29;20241;-83
2021/04/15 00:26:55;;;;;;;8.10;7.33;;;;;;;;;;4915710;28;20248;-82
2021/04/15 00:29:23;;;;;;;7.53;6.80;;;;;;;;;;4893060;28;20232;-84
2021/04/15 00:31:51;;;;;;;8.73;7.87;;;;;;;;;;4888602;28;20237;-83
2021/04/15 00:34:19;;;;;;;8.07;7.27;;;;;;;;;;4897943;28;20734;-82
2021/04/15 00:36:47;;;;;;;8.27;7.47;;;;;;;;;;4885020;28;20237;-86
2021/04/15 00:39:16;;;;;;;10.77;8.13;;;;;;;;;;4882838;28;20645;-85
2021/04/15 00:41:44;;;;;;;7.97;7.17;;;;;;;;;;4882214;28;20217;-82
2021/04/15 00:44:12;;;;;;;9.83;7.27;;;;;;;;;;4878354;28;20248;-82
2021/04/15 00:46:47;;;;;;;9.67;7.80;;;;;;;;;;4896350;28;20243;-80
2021/04/15 00:49:18;;;;;;;9.17;7.50;;;;;;;;;;4877555;28;20628;-85
2021/04/15 00:51:48;;;;;;;7.97;7.17;;;;;;;;;;4878778;28;20240;-85
2021/04/15 00:54:32;;;;;;;8.17;6.97;;;;;;;;;;4921111;28;20232;-86
2021/04/15 00:57:01;;;;;;;12.53;8.33;;;;;;;;;;4886637;28;20240;-84
2021/04/15 00:59:29;;;;;;;8.60;7.63;;;;;;;;;;4886066;28;20253;-84
2021/04/15 01:01:57;;;;;;;9.87;7.97;;;;;;;;;;4883939;28;20228;-83
2021/04/15 01:04:25;;;;;;;8.33;7.53;;;;;;;;;;4904213;28;20236;-84
2021/04/15 01:06:53;;;;;;;8.97;8.03;;;;;;;;;;4887543;28;20243;-83
2021/04/15 01:09:23;;;;;;;8.40;7.57;;;;;;;;;;4903072;28;20235;-82
2021/04/15 01:12:07;;;;;;;9.10;8.07;;;;;;;;;;4882017;28;20243;-86
2021/04/15 01:14:47;;;;;;;8.60;7.80;;;;;;;;;;4886094;28;20225;-85
2021/04/15 01:17:18;;;;;;;10.43;8.10;;;;;;;;;;4881762;28;20233;-85
2021/04/15 01:20:07;;;;;;;10.07;7.50;;;;;;;;;;4888182;28;20239;-88
2021/04/15 01:22:46;;;;;;;10.43;8.43;;;;;;;;;;4868569;29;20233;-82
2021/04/15 01:25:26;;;;;;;9.07;8.17;;;;;;;;;;4880882;28;20258;-88
2021/04/15 01:27:58;;;;;;;9.87;7.80;;;;;;;;;;4885093;28;20247;-89
2021/04/15 01:30:32;;;;;;;9.10;8.30;;;;;;;;;;4866975;28;20238;-87
2021/04/15 01:33:09;;;;;;;10.33;7.53;;;;;;;;;;4880474;28;20233;-84
2021/04/15 01:35:39;;;;;;;7.97;7.27;;;;;;;;;;4883937;28;20470;-82
2021/04/15 01:38:11;;;;;;;10.43;8.97;;;;;;;;;;4870225;28;20490;-85
2021/04/15 01:40:41;;;;;;;9.17;8.37;;;;;;;;;;4884169;28;20256;-86
2021/04/15 01:43:14;;;;;;;11.23;8.60;;;;;;;;;;4870894;29;20242;-88
2021/04/15 01:45:43;;;;;;;8.77;7.97;;;;;;;;;;4894567;28;20238;-85
2021/04/15 01:48:13;;;;;;;9.13;8.07;;;;;;;;;;4910920;28;20246;-85
2021/04/15 01:50:45;;;;;;;9.33;8.23;;;;;;;;;;4899125;28;20240;-82
2021/04/15 01:53:17;;;;;;;9.87;7.93;;;;;;;;;;4907867;28;20239;-88
2021/04/15 01:55:49;;;;;;;9.80;8.80;;;;;;;;;;4900857;28;20237;-86
2021/04/15 01:58:20;;;;;;;9.47;8.43;;;;;;;;;;4892401;28;20230;-82
2021/04/15 02:00:51;;;;;;;9.40;8.43;;;;;;;;;;4877862;28;20245;-84
2021/04/15 02:03:23;;;;;;;10.03;8.60;;;;;;;;;;4879014;28;20236;-84
2021/04/15 02:05:55;;;;;;;10.37;8.67;;;;;;;;;;4881272;28;20228;-84
2021/04/15 02:08:26;;;;;;;9.83;8.83;;;;;;;;;;4876882;29;20231;-83
2021/04/15 02:10:57;;;;;;;9.40;8.50;;;;;;;;;;4891960;28;20245;-83
2021/04/15 02:13:26;;;;;;;9.60;8.57;;;;;;;;;;4891765;28;20247;-82
2021/04/15 02:16:00;;;;;;;9.07;8.17;;;;;;;;;;4891939;28;20350;-83
2021/04/15 02:18:31;;;;;;;8.67;7.87;;;;;;;;;;4886821;28;20234;-85
2021/04/15 02:21:04;;;;;;;8.90;8.00;;;;;;;;;;4893686;28;20265;-87
2021/04/15 02:23:35;;;;;;;9.70;8.70;;;;;;;;;;4880434;28;20236;-83
2021/04/15 02:26:06;;;;;;;9.33;8.53;;;;;;;;;;4867967;28;20286;-81
2021/04/15 02:28:40;;;;;;;11.20;8.40;;;;;;;;;;4883744;28;20233;-82
2021/04/15 02:31:11;;;;;;;9.80;8.80;;;;;;;;;;4882753;28;20250;-84
2021/04/15 02:33:41;;;;;;;10.23;8.70;;;;;;;;;;4881220;28;20241;-83
2021/04/15 02:36:10;;;;;;;9.50;8.60;;;;;;;;;;4864832;28;20230;-82
2021/04/15 02:38:47;;;;;;;9.90;8.90;;;;;;;;;;4884179;28;20234;-88
2021/04/15 02:41:17;;;;;;;9.90;8.20;;;;;;;;;;4894606;28;20224;-85
2021/04/15 02:43:49;;;;;;;9.43;8.53;;;;;;;;;;4911861;28;20230;-82
2021/04/15 02:46:20;;;;;;;12.00;8.97;;;;;;;;;;4865000;29;20261;-81
2021/04/15 02:48:49;;;;;;;10.20;9.20;;;;;;;;;;4880358;28;20237;-82
2021/04/15 02:51:20;;;;;;;10.30;9.27;;;;;;;;;;4872406;28;20246;-82
2021/04/15 02:53:51;;;;;;;10.37;9.23;;;;;;;;;;4879367;28;20234;-83
2021/04/15 02:56:22;;;;;;;10.53;9.43;;;;;;;;;;4880147;28;20230;-81
2021/04/15 02:58:53;;;;;;;10.30;8.73;;;;;;;;;;4901825;28;20615;-82
2021/04/15 03:01:24;;;;;;;10.43;9.27;;;;;;;;;;4889734;28;20234;-82
2021/04/15 03:03:53;;;;;;;9.80;8.50;;;;;;;;;;4886967;28;20246;-84
2021/04/15 03:06:24;;;;;;;10.30;9.00;;;;;;;;;;4877622;28;20241;-86
2021/04/15 03:08:56;;;;;;;10.07;8.93;;;;;;;;;;4862549;28;20246;-83
2021/04/15 03:11:28;;;;;;;10.17;9.13;;;;;;;;;;4880528;28;20242;-83
2021/04/15 03:13:58;;;;;;;9.37;8.17;;;;;;;;;;4878941;28;20230;-82
2021/04/15 03:16:30;;;;;;;10.67;9.20;;;;;;;;;;4861702;29;20252;-82
2021/04/15 03:19:01;;;;;;;15.03;9.10;;;;;;;;;;4861872;28;20234;-83
2021/04/15 03:21:33;;;;;;;9.57;8.67;;;;;;;;;;4878955;28;20606;-87
2021/04/15 03:24:07;;;;;;;10.70;9.50;;;;;;;;;;4879996;28;20245;-82
2021/04/15 03:26:42;;;;;;;11.63;10.53;;;;;;;;;;4863923;29;20233;-81
2021/04/15 03:29:16;;;;;;;11.17;10.07;;;;;;;;;;4867134;28;20711;-83
2021/04/15 03:31:49;;;;;;;10.30;8.90;;;;;;;;;;4873249;28;20237;-84
2021/04/15 03:34:22;;;;;;;9.80;8.80;;;;;;;;;;4879360;28;20236;-85
2021/04/15 03:36:52;;;;;;;10.43;9.23;;;;;;;;;;4889555;28;20306;-82
2021/04/15 03:39:24;;;;;;;13.07;9.80;;;;;;;;;;4906163;28;20757;-83
2021/04/15 03:41:54;;;;;;;9.67;8.77;;;;;;;;;;4883464;28;20606;-85
2021/04/15 03:44:25;;;;;;;11.20;9.27;;;;;;;;;;4879564;29;20241;-80
2021/04/15 03:46:58;;;;;;;11.50;9.77;;;;;;;;;;4865107;29;20213;-82
2021/04/15 03:49:31;;;;;;;10.70;9.20;;;;;;;;;;4873431;28;20241;-83
2021/04/15 03:52:01;;;;;;;10.40;9.30;;;;;;;;;;4890152;28;20227;-81
2021/04/15 03:54:31;;;;;;;11.20;9.67;;;;;;;;;;4861483;29;20226;-80
2021/04/15 03:57:02;;;;;;;10.07;9.00;;;;;;;;;;4907924;28;20707;-81
2021/04/15 03:59:39;;;;;;;11.20;9.90;;;;;;;;;;4877405;28;20244;-84
2021/04/15 04:02:11;;;;;;;14.67;10.33;;;;;;;;;;4878769;28;20207;-82
2021/04/15 04:04:42;;;;;;;10.33;9.23;;;;;;;;;;4876927;29;20260;-82
2021/04/15 04:07:13;;;;;;;10.37;9.37;;;;;;;;;;4873932;29;20213;-84
2021/04/15 04:09:43;;;;;;;11.13;9.47;;;;;;;;;;4906619;28;20229;-81
2021/04/15 04:12:14;;;;;;;11.40;10.20;;;;;;;;;;4883088;28;20230;-82
2021/04/15 04:14:44;;;;;;;10.70;9.60;;;;;;;;;;4898857;29;20217;-80
2021/04/15 04:17:16;;;;;;;10.07;9.03;;;;;;;;;;4879771;28;20213;-83
2021/04/15 04:19:47;;;;;;;11.07;9.87;;;;;;;;;;4868665;29;20234;-81
2021/04/15 04:22:20;;;;;;;11.03;9.87;;;;;;;;;;4890983;28;20237;-82
2021/04/15 04:24:56;;;;;;;12.87;10.40;;;;;;;;;;4884906;28;20225;-81
2021/04/15 04:27:28;;;;;;;11.60;9.57;;;;;;;;;;4872955;28;20237;-84
2021/04/15 04:30:03;;;;;;;12.03;10.33;;;;;;;;;;4900243;28;20226;-81
2021/04/15 04:32:32;;;;;;;11.10;9.90;;;;;;;;;;4900295;28;20238;-82
2021/04/15 04:35:01;;;;;;;11.93;10.70;;;;;;;;;;4875782;28;20233;-81
2021/04/15 04:37:36;;;;;;;12.13;9.73;;;;;;;;;;4877194;29;20229;-83
2021/04/15 04:40:07;;;;;;;11.23;10.03;;;;;;;;;;4874614;28;20242;-82
2021/04/15 04:42:40;;;;;;;12.10;9.90;;;;;;;;;;4869587;29;20221;-82
2021/04/15 04:45:09;;;;;;;12.50;9.53;;;;;;;;;;4886746;28;20226;-80
2021/04/15 04:47:44;;;;;;;10.47;9.47;;;;;;;;;;4909080;28;20201;-80
2021/04/15 04:50:25;;;;;;;11.17;9.97;;;;;;;;;;4889628;29;20225;-82
2021/04/15 04:52:58;;;;;;;12.77;10.80;;;;;;;;;;4867848;29;20592;-89
2021/04/15 04:55:30;;;;;;;11.80;10.60;;;;;;;;;;4862713;29;20221;-82
2021/04/15 04:58:03;;;;;;;17.60;11.13;;;;;;;;;;4887140;28;20246;-82
2021/04/15 05:00:30;;;;;;;14.10;10.97;;;;;;;;;;4871881;28;20230;-81
2021/04/15 05:02:59;;;;;;;12.43;10.03;;;;;;;;;;4880346;28;20209;-81
2021/04/15 05:05:29;;;;;;;12.40;10.70;;;;;;;;;;4878746;29;20215;-87
2021/04/15 05:08:04;;;;;;;13.20;10.40;;;;;;;;;;4882696;29;20205;-81
2021/04/15 05:10:32;;;;;;;11.37;10.17;;;;;;;;;;4892704;29;20576;-82
2021/04/15 05:13:16;;;;;;;13.17;11.27;;;;;;;;;;4869089;28;20222;-81
2021/04/15 05:15:44;;;;;;;13.87;10.77;;;;;;;;;;4878460;28;20229;-82
2021/04/15 05:18:16;;;;;;;13.60;11.00;;;;;;;;;;4866910;29;20216;-82
2021/04/15 05:20:44;;;;;;;13.80;10.70;;;;;;;;;;4877190;29;20264;-80
2021/04/15 05:23:18;;;;;;;11.97;10.47;;;;;;;;;;4883576;29;20582;-82
2021/04/15 05:26:01;;;;;;;13.47;10.67;;;;;;;;;;4942466;28;20229;-85
2021/04/15 05:28:30;;;;;;;15.43;10.20;;;;;;;;;;4866872;29;20233;-81
2021/04/15 05:30:57;;;;;;;13.33;10.67;;;;;;;;;;4883920;29;20209;-80
2021/04/15 05:33:27;;;;;;;12.37;10.00;;;;;;;;;;4935999;28;20230;-89
2021/04/15 05:36:01;;;;;;;13.73;10.57;;;;;;;;;;4900761;29;20206;-87
2021/04/15 05:38:33;;;;;;;12.03;10.53;;;;;;;;;;4885631;28;20229;-80
2021/04/15 05:41:02;;;;;;;12.67;10.10;;;;;;;;;;4867767;29;20250;-85
2021/04/15 05:43:34;;;;;;;12.53;9.40;;;;;;;;;;4885528;29;20207;-86
2021/04/15 05:46:09;;;;;;;11.97;10.00;;;;;;;;;;4878516;28;20222;-86
2021/04/15 05:48:38;;;;;;;10.97;9.70;;;;;;;;;;4923441;28;20241;-83
2021/04/15 05:51:11;;;;;;;11.03;9.27;;;;;;;;;;4896330;28;20242;-86
2021/04/15 05:53:41;;;;;;;11.33;9.30;;;;;;;;;;4891808;28;20238;-83
2021/04/15 05:56:11;;;;;;;13.80;9.63;;;;;;;;;;4876383;29;20223;-84
2021/04/15 05:58:44;;;;;;;12.27;9.50;;;;;;;;;;4865400;29;20349;-86
2021/04/15 06:01:15;;;;;;;11.37;9.73;;;;;;;;;;4907177;28;20608;-82
2021/04/15 06:03:54;;;;;;;12.07;9.20;;;;;;;;;;4895590;28;20673;-81
2021/04/15 06:06:26;;;;;;;11.60;9.67;;;;;;;;;;4892468;29;20210;-84
2021/04/15 06:08:55;;;;;;;16.70;11.07;;;;;;;;;;4868477;29;20234;-81
2021/04/15 06:11:42;;;;;;;11.23;8.80;;;;;;;;;;4866545;29;20218;-82
2021/04/15 06:14:15;;;;;;;11.43;8.53;;;;;;;;;;4895947;28;20245;-85
2021/04/15 06:16:47;;;;;;;10.23;8.83;;;;;;;;;;4875637;28;20231;-83
2021/04/15 06:19:17;;;;;;;10.73;8.83;;;;;;;;;;4877964;28;20748;-87
2021/04/15 06:21:47;;;;;;;11.17;8.20;;;;;;;;;;4873254;28;20237;-86
2021/04/15 06:24:18;;;;;;;11.30;9.20;;;;;;;;;;4879440;28;20240;-84
2021/04/15 06:26:48;;;;;;;11.37;9.37;;;;;;;;;;4881164;28;20585;-84
2021/04/15 06:29:24;;;;;;;10.50;8.53;;;;;;;;;;4885242;28;20243;-83
2021/04/15 06:31:55;;;;;;;10.60;8.43;;;;;;;;;;4878781;28;20262;-85
2021/04/15 06:34:24;;;;;;;9.27;7.97;;;;;;;;;;4887291;28;20248;-86
2021/04/15 06:36:58;;;;;;;11.47;8.17;;;;;;;;;;4876720;29;20248;-84
2021/04/15 06:39:30;;;;;;;8.77;7.30;;;;;;;;;;4877336;28;20242;-84
2021/04/15 06:42:13;;;;;;;10.67;7.77;;;;;;;;;;4865670;29;20789;-84
2021/04/15 06:45:11;;;;;;;7.93;7.13;;;;;;;;;;4867587;29;20574;-86
2021/04/15 06:48:31;;;;;;;11.37;7.60;;;;;;;;;;4915558;28;20765;-81
2021/04/15 06:51:42;;;;;;;8.40;6.37;;;;;;;;;;4900141;29;20671;-81
2021/04/15 06:54:33;;;;;;;7.50;6.67;;;;;;;;;;4876097;29;20212;-91
2021/04/15 06:57:22;;;;;;;7.73;6.67;;;;;;;;;;4877109;29;20205;-91
2021/04/15 07:00:16;;;;;;;7.97;6.40;;;;;;;;;;4903630;28;20220;-89
2021/04/15 07:02:54;;;;;;;9.93;5.60;;;;;;;;;;4897801;28;20236;-88
2021/04/15 07:05:24;;;;;;;7.83;5.50;;;;;;;;;;4884078;29;20437;-90
2021/04/15 07:07:57;;;;;;;9.43;5.70;;;;;;;;;;4869148;29;20213;-88
2021/04/15 07:10:50;;;;;;;8.37;5.47;;;;;;;;;;4892940;29;20582;-81
2021/04/15 07:13:44;;;;;;;7.70;5.33;;;;;;;;;;4881092;28;20643;-83
2021/04/15 07:16:41;;;;;;;6.70;5.17;;;;;;;;;;4885121;29;20670;-81
2021/04/15 07:19:50;;;;;;;7.73;5.00;;;;;;;;;;4885483;29;20234;-82
2021/04/15 07:22:36;;;;;;;7.50;5.03;;;;;;;;;;4868022;29;20234;-88
2021/04/15 07:25:14;;;;;;;5.53;3.77;;;;;;;;;;4893959;29;20210;-80
2021/04/15 07:28:03;;;;;;;4.93;3.90;;;;;;;;;;4863836;29;20617;-82
2021/04/15 07:31:22;;;;;;;6.77;4.33;;;;;;;;;;4874189;28;20630;-87
2021/04/15 07:34:07;;;;;;;9.73;4.47;;;;;;;;;;4903566;29;20248;-82
2021/04/15 07:37:00;;;;;;;7.33;4.10;;;;;;;;;;4911687;29;20230;-83
2021/04/15 07:39:53;;;;;;;5.20;3.67;;;;;;;;;;4885730;29;20703;-82
2021/04/15 07:42:29;;;;;;;5.77;4.00;;;;;;;;;;4881391;29;20210;-87
2021/04/15 07:44:59;;;;;;;8.70;4.07;;;;;;;;;;4906530;28;20240;-83
2021/04/15 07:48:12;;;;;;;7.33;4.70;;;;;;;;;;4886992;28;20229;-85
2021/04/15 07:51:10;;;;;;;6.67;4.10;;;;;;;;;;4897158;28;20217;-90
2021/04/15 07:53:50;;;;;;;7.87;4.23;;;;;;;;;;4892305;28;20253;-91
2021/04/15 07:56:39;;;;;;;5.63;4.03;;;;;;;;;;4889036;29;20235;-90
2021/04/15 07:59:27;;;;;;;7.53;4.77;;;;;;;;;;4890223;28;20230;-81
2021/04/15 08:02:05;;;;;;;6.50;4.20;;;;;;;;;;4883372;28;20237;-82
2021/04/15 08:04:55;;;;;;;6.97;4.33;;;;;;;;;;4899123;28;20630;-82
2021/04/15 08:07:43;;;;;;;9.30;4.30;;;;;;;;;;4893918;28;20244;-82
2021/04/15 08:10:41;;;;;;;10.23;7.80;;;;;;;;;;4886708;28;20464;-81
2021/04/15 08:13:35;;;;;;;6.57;5.20;;;;;;;;;;4896225;28;20241;-81
2021/04/15 08:16:16;;;;;;;6.43;4.83;;;;;;;;;;4856328;28;20506;-83
2021/04/15 08:18:49;;;;;;;5.73;4.80;;;;;;;;;;4944161;28;20234;-88
2021/04/15 08:21:28;;;;;;;9.17;6.47;;;;;;;;;;4889399;28;20229;-84
2021/04/15 08:24:16;;;;;;;6.37;4.57;;;;;;;;;;4882419;28;20773;-84
2021/04/15 08:27:15;;;;;;;10.60;5.10;;;;;;;;;;4917850;28;20229;-90
2021/04/15 08:29:52;;;;;;;9.93;6.80;;;;;;;;;;4898071;28;20229;-87
2021/04/15 08:32:29;;;;;;;10.53;7.40;;;;;;;;;;4877965;29;20237;-82
2021/04/15 08:35:03;;;;;;;9.43;5.30;;;;;;;;;;4861892;28;20724;-83
2021/04/15 08:37:39;;;;;;;7.23;5.77;;;;;;;;;;4879738;28;20223;-82
2021/04/15 08:40:27;;;;;;;8.70;6.50;;;;;;;;;;4861890;28;20240;-82
2021/04/15 08:43:02;;;;;;;9.10;5.87;;;;;;;;;;4890021;28;20237;-83
2021/04/15 08:45:39;;;;;;;7.20;5.10;;;;;;;;;;4877217;29;20686;-81
2021/04/15 08:48:23;;;;;;;5.73;4.50;;;;;;;;;;4887310;28;20229;-82
2021/04/15 08:51:01;;;;;;;7.33;5.47;;;;;;;;;;4860430;28;20225;-83
2021/04/15 08:53:51;;;;;;;10.00;5.60;;;;;;;;;;4888648;28;20238;-85
2021/04/15 08:56:21;;;;;;;8.17;5.77;;;;;;;;;;4871493;29;20754;-85
2021/04/15 08:59:11;;;;;;;6.83;5.30;;;;;;;;;;4892132;28;20249;-86
2021/04/15 09:01:46;;;;;;;9.63;5.60;;;;;;;;;;4893851;28;20237;-84
2021/04/15 09:04:17;;;;;;;6.33;5.17;;;;;;;;;;4877898;28;20224;-83
2021/04/15 09:06:52;;;;;;;6.40;5.40;;;;;;;;;;4876044;28;20287;-88
2021/04/15 09:09:22;;;;;;;7.47;5.10;;;;;;;;;;4882227;28;20239;-86
2021/04/15 09:12:01;;;;;;;8.73;6.30;;;;;;;;;;4882297;28;20232;-82
2021/04/15 09:14:44;;;;;;;11.00;6.83;;;;;;;;;;4877007;29;20237;-86
2021/04/15 09:17:15;;;;;;;7.53;6.20;;;;;;;;;;4889972;28;20233;-82
2021/04/15 09:19:54;;;;;;;9.97;7.00;;;;;;;;;;4877498;28;20240;-83
2021/04/15 09:22:37;;;;;;;8.00;6.83;;;;;;;;;;4874279;28;20235;-84
2021/04/15 09:25:06;;;;;;;8.80;7.17;;;;;;;;;;4878144;28;20243;-84
2021/04/15 09:27:45;;;;;;;8.40;7.00;;;;;;;;;;4878710;28;20229;-84
2021/04/15 09:30:20;;;;;;;7.70;6.90;;;;;;;;;;4874808;28;20240;-84
2021/04/15 09:32:58;;;;;;;8.53;6.90;;;;;;;;;;4871033;28;20610;-85
2021/04/15 09:35:50;;;;;;;8.70;7.00;;;;;;;;;;4859072;28;20252;-84
2021/04/15 09:38:50;;;;;;;7.17;6.47;;;;;;;;;;4866548;29;20237;-87
2021/04/15 09:41:44;;;;;;;7.83;6.07;;;;;;;;;;4879155;28;20248;-91
2021/04/15 09:44:34;;;;;;;7.40;5.80;;;;;;;;;;4896728;29;20238;-90
2021/04/15 09:47:10;;;;;;;10.50;6.57;;;;;;;;;;4953986;28;20260;-85
2021/04/15 09:49:44;;;;;;;7.50;6.47;;;;;;;;;;4865214;29;20240;-86
2021/04/15 09:52:47;;;;;;;8.07;6.10;;;;;;;;;;4865391;29;20234;-87
2021/04/15 09:55:28;;;;;;;7.97;6.07;;;;;;;;;;4876713;28;20233;-86
2021/04/15 09:58:06;;;;;;;7.03;5.87;;;;;;;;;;4919560;28;20241;-86
2021/04/15 10:00:36;;;;;;;7.90;6.63;;;;;;;;;;4899810;28;20905;-83
2021/04/15 10:03:10;;;;;;;6.77;6.07;;;;;;;;;;4875640;29;20221;-86
2021/04/15 10:05:46;;;;;;;5.93;5.00;;;;;;;;;;4868045;29;20607;-85
2021/04/15 10:08:23;;;;;;;7.47;5.37;;;;;;;;;;4893873;28;20228;-82
2021/04/15 10:11:00;;;;;;;7.03;5.13;;;;;;;;;;4879105;28;20225;-88
2021/04/15 10:13:35;;;;;;;6.63;5.57;;;;;;;;;;4895444;28;20269;-85
2021/04/15 10:16:07;;;;;;;7.47;5.50;;;;;;;;;;4890345;28;20233;-87
2021/04/15 10:18:49;;;;;;;6.80;5.50;;;;;;;;;;4898783;28;20244;-88
2021/04/15 10:21:25;;;;;;;5.60;5.03;;;;;;;;;;4872963;29;20813;-86
2021/04/15 10:24:01;;;;;;;6.47;5.23;;;;;;;;;;4886834;28;20260;-84
2021/04/15 10:26:52;;;;;;;7.20;5.40;;;;;;;;;;4946146;28;20617;-86
2021/04/15 10:29:41;;;;;;;6.60;5.37;;;;;;;;;;4864245;29;20236;-83
2021/04/15 10:32:27;;;;;;;7.17;6.17;;;;;;;;;;4905933;28;20233;-84
2021/04/15 10:35:33;;;;;;;7.37;5.37;;;;;;;;;;4883072;28;20229;-84
2021/04/15 10:38:41;;;;;;;5.77;4.60;;;;;;;;;;4883477;28;20226;-85
2021/04/15 10:41:28;;;;;;;7.07;5.17;;;;;;;;;;4885212;28;20221;-82
2021/04/15 10:44:32;;;;;;;7.77;4.93;;;;;;;;;;4882895;28;20236;-87
2021/04/15 10:47:10;;;;;;;6.53;4.63;;;;;;;;;;4868483;28;20241;-84
2021/04/15 10:49:46;;;;;;;5.20;4.70;;;;;;;;;;4921567;28;20341;-84
2021/04/15 10:52:23;;;;;;;4.77;4.23;;;;;;;;;;4896119;28;20221;-85
2021/04/15 10:54:51;;;;;;;5.80;4.17;;;;;;;;;;4898370;28;20750;-87
2021/04/15 10:57:21;;;;;;;8.07;4.57;;;;;;;;;;4872006;29;20202;-81
2021/04/15 10:59:50;;;;;;;6.33;4.47;;;;;;;;;;4854623;28;20700;-82
2021/04/15 11:02:32;;;;;;;5.73;4.17;;;;;;;;;;4901946;28;20230;-83
2021/04/15 11:05:22;;;;;;;6.50;4.73;;;;;;;;;;4901240;28;20218;-81
2021/04/15 11:07:51;;;;;;;5.37;4.07;;;;;;;;;;4882744;28;20608;-85
2021/04/15 11:10:22;;;;;;;8.30;4.77;;;;;;;;;;4868906;29;20238;-83
2021/04/15 11:13:02;;;;;;;4.87;4.37;;;;;;;;;;4895050;28;20223;-84
2021/04/15 11:15:39;;;;;;;6.70;4.83;;;;;;;;;;4874618;28;20237;-81
2021/04/15 11:18:09;;;;;;;4.53;4.13;;;;;;;;;;4895190;28;20233;-86
2021/04/15 11:20:41;;;;;;;4.90;4.10;;;;;;;;;;4871229;29;20221;-88
2021/04/15 11:23:27;;;;;;;5.10;4.60;;;;;;;;;;4881341;28;20256;-89
2021/04/15 11:26:21;;;;;;;5.03;4.57;;;;;;;;;;4891486;28;20517;-83
2021/04/15 11:28:51;;;;;;;5.57;5.07;;;;;;;;;;4867004;28;20244;-83
2021/04/15 11:31:29;;;;;;;6.67;5.20;;;;;;;;;;4884962;28;20638;-84
2021/04/15 11:34:07;;;;;;;5.90;4.60;;;;;;;;;;4882677;28;20249;-84
2021/04/15 11:36:38;;;;;;;4.23;3.90;;;;;;;;;;4875505;28;20245;-83
2021/04/15 11:39:15;;;;;;;5.80;4.43;;;;;;;;;;4861843;28;20229;-83
2021/04/15 11:41:53;;;;;;;5.07;4.30;;;;;;;;;;4862700;29;20234;-84
2021/04/15 11:44:27;;;;;;;5.97;4.40;;;;;;;;;;4881549;28;20584;-83
2021/04/15 11:46:57;;;;;;;4.90;4.40;;;;;;;;;;4880668;28;20233;-87
2021/04/15 11:49:30;;;;;;;4.23;3.83;;;;;;;;;;4864651;29;20236;-87
2021/04/15 11:52:01;;;;;;;5.70;5.20;;;;;;;;;;4886632;28;20244;-82
2021/04/15 11:54:32;;;;;;;4.70;4.30;;;;;;;;;;4893176;28;20243;-87
2021/04/15 11:57:21;;;;;;;4.30;3.90;;;;;;;;;;4896662;28;20209;-87
2021/04/15 12:00:11;;;;;;;5.40;4.10;;;;;;;;;;4903667;28;20245;-83
2021/04/15 12:02:45;;;;;;;5.82;4.53;;;;;;;;;;4883062;28;20729;-80
2021/04/15 12:05:20;;;;;;;4.47;3.88;;;;;;;;;;4890519;28;20229;-81
2021/04/15 12:07:57;;;;;;;5.03;4.60;;;;;;;;;;4858905;28;20226;-80
2021/04/15 12:10:28;;;;;;;4.22;3.92;;;;;;;;;;4872275;28;20782;-79
2021/04/15 12:13:00;;;;;;;4.15;3.75;;;;;;;;;;4856775;28;20233;-81
2021/04/15 12:15:31;;;;;;;3.97;3.67;;;;;;;;;;4860991;29;20240;-81
2021/04/15 12:18:03;;;;;;;4.38;3.97;;;;;;;;;;4871988;28;20229;-80
2021/04/15 12:20:43;;;;;;;4.40;4.00;;;;;;;;;;4879266;28;20241;-82
2021/04/15 12:23:17;;;;;;;3.75;3.45;;;;;;;;;;4879530;28;20224;-82
2021/04/15 12:26:07;;;;;;;4.28;3.88;;;;;;;;;;4873212;28;20229;-79
2021/04/15 12:28:38;;;;;;;4.28;3.75;;;;;;;;;;4869126;28;20240;-80
2021/04/15 12:31:13;;;;;;;3.88;3.47;;;;;;;;;;4873976;28;20229;-82
2021/04/15 12:33:45;;;;;;;3.90;3.50;;;;;;;;;;4868725;28;20244;-83
2021/04/15 12:36:17;;;;;;;3.80;3.50;;;;;;;;;;4873062;28;20237;-81
2021/04/15 12:38:49;;;;;;;3.95;3.63;;;;;;;;;;4877368;28;20234;-81
2021/04/15 12:41:17;;;;;;;3.63;3.33;;;;;;;;;;4871204;28;20230;-80
2021/04/15 12:43:48;;;;;;;3.45;3.10;;;;;;;;;;4851352;29;20341;-82
2021/04/15 12:46:19;;;;;;;3.75;3.30;;;;;;;;;;4849602;28;20236;-82
2021/04/15 12:48:50;;;;;;;3.55;3.30;;;;;;;;;;4886051;28;20244;-80
2021/04/15 12:51:22;;;;;;;4.10;3.80;;;;;;;;;;4881575;28;20230;-81
2021/04/15 12:53:50;;;;;;;3.38;3.10;;;;;;;;;;4869365;28;20322;-81
2021/04/15 12:56:20;;;;;;;3.90;3.60;;;;;;;;;;4873214;28;20249;-81
2021/04/15 12:58:49;;;;;;;4.05;3.75;;;;;;;;;;4872663;28;20245;-84
2021/04/15 13:01:16;;;;;;;4.30;3.90;;;;;;;;;;4874199;28;20232;-83
2021/04/15 13:03:46;;;;;;;5.57;3.97;;;;;;;;;;4867363;28;20238;-81
2021/04/15 13:06:16;;;;;;;4.68;3.60;;;;;;;;;;4850029;29;20249;-83
2021/04/15 13:08:50;;;;;;;3.90;3.60;;;;;;;;;;4867583;28;20241;-81
2021/04/15 13:11:42;;;;;;;3.67;3.25;;;;;;;;;;4867767;28;20244;-83
2021/04/15 13:14:15;;;;;;;3.47;3.10;;;;;;;;;;4929650;28;20226;-79
2021/04/15 13:16:58;;;;;;;3.92;3.20;;;;;;;;;;4887286;28;20256;-83
2021/04/15 13:19:53;;;;;;;6.00;3.37;;;;;;;;;;4870328;28;20234;-85
2021/04/15 13:22:32;;;;;;;4.07;3.77;;;;;;;;;;4888372;28;20621;-84
2021/04/15 13:25:20;;;;;;;4.97;3.73;;;;;;;;;;4857194;28;20244;-84
2021/04/15 13:28:10;;;;;;;5.40;3.80;;;;;;;;;;4892007;28;20212;-87
2021/04/15 13:31:05;;;;;;;4.40;4.00;;;;;;;;;;4910564;28;20225;-86
2021/04/15 13:34:01;;;;;;;4.47;3.80;;;;;;;;;;4899209;28;20220;-88
2021/04/15 13:36:29;;;;;;;6.93;4.03;;;;;;;;;;4909362;28;20233;-85
2021/04/15 13:39:08;;;;;;;3.47;3.17;;;;;;;;;;4894347;28;20251;-83
2021/04/15 13:41:48;;;;;;;4.50;3.77;;;;;;;;;;4916826;28;20218;-84
2021/04/15 13:44:51;;;;;;;3.35;3.05;;;;;;;;;;4892933;28;20218;-83
2021/04/15 13:47:56;;;;;;;4.22;3.60;;;;;;;;;;4886612;28;20229;-84
2021/04/15 13:51:10;;;;;;;4.35;3.55;;;;;;;;;;4887024;28;20229;-83
2021/04/15 13:53:50;;;;;;;4.20;3.30;;;;;;;;;;4881212;29;20245;-80
2021/04/15 13:56:39;;;;;;;3.63;3.33;;;;;;;;;;4853837;29;20233;-82
2021/04/15 13:59:38;;;;;;;3.90;3.50;;;;;;;;;;4882124;28;20590;-81
2021/04/15 14:02:38;;;;;;;3.88;3.58;;;;;;;;;;4877730;28;20595;-82
2021/04/15 14:05:26;;;;;;;3.83;3.53;;;;;;;;;;4880275;28;20723;-82
2021/04/15 14:07:55;;;;;;;4.07;3.78;;;;;;;;;;4876364;28;20228;-81
2021/04/15 14:10:35;;;;;;;4.15;3.85;;;;;;;;;;4897854;28;20245;-83
2021/04/15 14:13:04;;;;;;;4.30;3.90;;;;;;;;;;4875774;28;20233;-81
2021/04/15 14:15:44;;;;;;;4.38;3.90;;;;;;;;;;4899790;28;20222;-83
2021/04/15 14:18:22;;;;;;;3.80;3.50;;;;;;;;;;4886410;28;20233;-80
2021/04/15 14:20:52;;;;;;;3.92;3.63;;;;;;;;;;4885269;28;20591;-82
2021/04/15 14:23:24;;;;;;;6.78;3.97;;;;;;;;;;4882445;28;20233;-80
2021/04/15 14:25:54;;;;;;;3.50;3.20;;;;;;;;;;4892796;28;20221;-80
2021/04/15 14:28:27;;;;;;;3.90;3.60;;;;;;;;;;4869698;28;20494;-80
2021/04/15 14:30:55;;;;;;;4.00;3.60;;;;;;;;;;4862672;29;20322;-80
2021/04/15 14:33:26;;;;;;;4.07;3.78;;;;;;;;;;4859366;29;20244;-81
2021/04/15 14:35:54;;;;;;;4.07;3.60;;;;;;;;;;4862018;28;20225;-82
2021/04/15 14:38:40;;;;;;;3.80;3.50;;;;;;;;;;4883064;28;20229;-80
2021/04/15 14:41:08;;;;;;;3.53;3.22;;;;;;;;;;4874129;28;20998;-80
2021/04/15 14:43:37;;;;;;;4.40;4.00;;;;;;;;;;4875261;28;20237;-80
2021/04/15 14:46:12;;;;;;;3.30;3.05;;;;;;;;;;4887506;28;20225;-81
2021/04/15 14:48:42;;;;;;;3.97;3.50;;;;;;;;;;4848915;29;20240;-80
2021/04/15 14:51:12;;;;;;;3.40;3.10;;;;;;;;;;4875697;28;20222;-81
2021/04/15 14:53:42;;;;;;;3.22;3.03;;;;;;;;;;4887432;28;20256;-82
2021/04/15 14:56:18;;;;;;;4.20;3.80;;;;;;;;;;4857219;28;20234;-80
2021/04/15 14:58:48;;;;;;;4.57;3.60;;;;;;;;;;4866311;28;20234;-84
2021/04/15 15:01:25;;;;;;;3.13;2.83;;;;;;;;;;4877667;28;20238;-83
2021/04/15 15:03:56;;;;;;;4.77;3.20;;;;;;;;;;4858795;28;20233;-81
2021/04/15 15:06:33;;;;;;;4.07;3.53;;;;;;;;;;4879507;28;20236;-82
2021/04/15 15:09:01;;;;;;;4.20;3.50;;;;;;;;;;4870214;28;20242;-80
2021/04/15 15:11:29;;;;;;;4.00;3.50;;;;;;;;;;4875070;28;20238;-80
2021/04/15 15:13:57;;;;;;;3.40;3.10;;;;;;;;;;4864258;29;20604;-80
2021/04/15 15:16:28;;;;;;;3.60;3.00;;;;;;;;;;4867837;28;20245;-80
2021/04/15 15:18:59;;;;;;;3.40;3.10;;;;;;;;;;4880118;28;20241;-82
2021/04/15 15:21:28;;;;;;;3.60;3.30;;;;;;;;;;4893244;28;20218;-80
2021/04/15 15:24:11;;;;;;;3.50;3.20;;;;;;;;;;4865910;28;20230;-80
2021/04/15 15:26:43;;;;;;;3.60;3.30;;;;;;;;;;4878016;28;20233;-82
2021/04/15 15:29:20;;;;;;;3.80;3.00;;;;;;;;;;4887867;28;20234;-81
2021/04/15 15:32:16;;;;;;;3.17;2.97;;;;;;;;;;4885544;28;20322;-80
2021/04/15 15:34:55;;;;;;;4.73;3.40;;;;;;;;;;4875911;28;20718;-81